Time;durP1;ratioP1;P1;durP2;ratioP2;P2;SDS_P1;SDS_P2;PMS_P1;PMS_P2;Temp;Humidity;BMP_temperature;BMP_pressure;BME280_temperature;BME280_humidity;BME280_pressure;Samples;Min_cycle;Max_cycle;Signal;HPM_P1;HPM_P2
2021/12/05 00:17:39;;;;;;;;;1.67;1.00;;;;;;;;5039838;28;45520;-82
2021/12/05 00:22:37;;;;;;;;;0.00;0.00;;;;;;;;5039941;28;45424;-82
2021/12/05 00:25:05;;;;;;;;;0.00;0.00;;;;;;;;5022350;28;45506;-82
2021/12/05 00:27:43;;;;;;;;;1.00;1.00;;;;;;;;5041998;28;45505;-82
2021/12/05 00:32:58;;;;;;;;;0.00;0.00;;;;;;;;5040887;28;45543;-82
2021/12/05 00:46:44;;;;;;;;;0.00;0.00;;;;;;;;5018245;28;45826;-81
2021/12/05 01:03:04;;;;;;;;;0.00;0.00;;;;;;;;4958075;28;45832;-81
2021/12/05 01:15:50;;;;;;;;;1.33;0.00;;;;;;;;5015849;28;45915;-81
2021/12/05 01:18:16;;;;;;;;;0.00;0.00;;;;;;;;5016672;28;45367;-81
2021/12/05 01:20:46;;;;;;;;;0.00;0.00;;;;;;;;5015633;28;45430;-81
2021/12/05 01:23:23;;;;;;;;;0.00;0.00;;;;;;;;5015465;28;45621;-82
2021/12/05 01:26:08;;;;;;;;;0.00;0.00;;;;;;;;5015194;28;47175;-82
2021/12/05 01:28:55;;;;;;;;;1.00;0.00;;;;;;;;5016894;28;45963;-81
2021/12/05 01:31:33;;;;;;;;;0.00;0.00;;;;;;;;5016911;28;45515;-81
2021/12/05 01:44:55;;;;;;;;;0.00;0.00;;;;;;;;5078782;28;45757;-82
2021/12/05 02:09:05;;;;;;;;;5.00;1.00;;;;;;;;5081961;28;45482;-81
2021/12/05 02:41:09;;;;;;;;;0.00;0.00;;;;;;;;5077668;28;45781;-82
2021/12/05 02:43:39;;;;;;;;;0.00;0.00;;;;;;;;5058820;28;45570;-82
2021/12/05 02:46:05;;;;;;;;;0.33;0.00;;;;;;;;5058233;28;45425;-82
2021/12/05 02:48:35;;;;;;;;;0.67;0.67;;;;;;;;5076541;28;45438;-82
2021/12/05 02:51:04;;;;;;;;;0.00;0.00;;;;;;;;5050944;28;46977;-82
2021/12/05 02:56:04;;;;;;;;;0.00;0.00;;;;;;;;5058660;28;45891;-82
2021/12/05 02:59:20;;;;;;;;;0.00;0.00;;;;;;;;5056372;28;45433;-82
2021/12/05 03:01:27;;;;;;;;;0.00;0.00;;;;;;;;5045447;28;46505;-82
2021/12/05 03:03:55;;;;;;;;;0.00;0.00;;;;;;;;5057677;28;45448;-82
2021/12/05 03:06:23;;;;;;;;;0.33;0.33;;;;;;;;5060334;28;45437;-82
2021/12/05 03:08:54;;;;;;;;;1.00;1.00;;;;;;;;5060857;28;45421;-82
2021/12/05 03:11:20;;;;;;;;;0.00;0.00;;;;;;;;5042669;28;45547;-83
2021/12/05 03:13:46;;;;;;;;;1.00;1.00;;;;;;;;5060783;28;45783;-83
2021/12/05 03:16:12;;;;;;;;;0.00;0.00;;;;;;;;5059933;28;45406;-83
2021/12/05 03:18:38;;;;;;;;;0.00;0.00;;;;;;;;5042803;28;45417;-83
2021/12/05 03:21:04;;;;;;;;;0.00;0.00;;;;;;;;5059699;28;45471;-80
2021/12/05 03:23:30;;;;;;;;;0.00;0.00;;;;;;;;5040581;28;46175;-81
2021/12/05 03:25:55;;;;;;;;;0.00;0.00;;;;;;;;5041402;28;45983;-81
2021/12/05 03:28:21;;;;;;;;;0.00;0.00;;;;;;;;5060904;28;45334;-81
2021/12/05 03:30:46;;;;;;;;;0.00;0.00;;;;;;;;5042083;28;47023;-81
2021/12/05 03:33:11;;;;;;;;;0.00;0.00;;;;;;;;5059209;28;45723;-81
2021/12/05 03:35:38;;;;;;;;;0.00;0.00;;;;;;;;5041875;28;45587;-80
2021/12/05 03:38:03;;;;;;;;;0.00;0.00;;;;;;;;5060779;28;45433;-81
2021/12/05 03:40:31;;;;;;;;;0.00;0.00;;;;;;;;5060695;28;45654;-80
2021/12/05 03:42:57;;;;;;;;;0.00;0.00;;;;;;;;5060745;28;45405;-81
2021/12/05 03:45:25;;;;;;;;;0.00;0.00;;;;;;;;5060669;28;45771;-81
2021/12/05 03:47:50;;;;;;;;;0.00;0.00;;;;;;;;5041520;28;45871;-81
2021/12/05 03:50:16;;;;;;;;;0.00;0.00;;;;;;;;5062544;27;46670;-81
2021/12/05 03:52:41;;;;;;;;;0.00;0.00;;;;;;;;5062744;28;45347;-81
2021/12/05 03:55:08;;;;;;;;;0.00;0.00;;;;;;;;5082089;28;45468;-82
2021/12/05 03:57:34;;;;;;;;;1.00;1.00;;;;;;;;5081211;28;45218;-81
2021/12/05 03:59:59;;;;;;;;;0.00;0.00;;;;;;;;5079503;28;45898;-81
2021/12/05 04:02:24;;;;;;;;;0.67;0.00;;;;;;;;5080541;28;45429;-81
2021/12/05 04:04:50;;;;;;;;;0.00;0.00;;;;;;;;5081100;28;45511;-81
2021/12/05 04:07:16;;;;;;;;;0.00;0.00;;;;;;;;5063809;28;45414;-81
2021/12/05 04:09:42;;;;;;;;;0.00;0.00;;;;;;;;5063021;28;47950;-81
2021/12/05 04:15:11;;;;;;;;;0.00;0.00;;;;;;;;5080767;28;45789;-81
2021/12/05 04:17:37;;;;;;;;;1.00;0.00;;;;;;;;5081154;28;45464;-81
2021/12/05 04:20:04;;;;;;;;;0.00;0.00;;;;;;;;5062446;28;48177;-81
2021/12/05 04:22:29;;;;;;;;;0.00;0.00;;;;;;;;5082590;28;44785;-81
2021/12/05 04:24:56;;;;;;;;;0.00;0.00;;;;;;;;5070040;28;45409;-81
2021/12/05 04:27:22;;;;;;;;;0.00;0.00;;;;;;;;5039265;28;45502;-81
2021/12/05 04:29:47;;;;;;;;;1.00;0.00;;;;;;;;5057517;28;45423;-81
2021/12/05 04:32:12;;;;;;;;;0.00;0.00;;;;;;;;5058047;28;45814;-81
2021/12/05 04:34:37;;;;;;;;;0.00;0.00;;;;;;;;5058921;28;45831;-81
2021/12/05 04:37:04;;;;;;;;;0.00;0.00;;;;;;;;5061544;28;45428;-81
2021/12/05 04:39:31;;;;;;;;;0.00;0.00;;;;;;;;5060416;28;47221;-81
2021/12/05 04:41:56;;;;;;;;;0.00;0.00;;;;;;;;5079266;28;45770;-82
2021/12/05 04:44:22;;;;;;;;;0.00;0.00;;;;;;;;5060414;28;45743;-82
2021/12/05 04:46:48;;;;;;;;;1.00;1.00;;;;;;;;5060444;28;45868;-81
2021/12/05 04:49:13;;;;;;;;;0.00;0.00;;;;;;;;5061007;28;48239;-81
2021/12/05 04:51:40;;;;;;;;;0.00;0.00;;;;;;;;5078998;28;45306;-81
2021/12/05 04:54:06;;;;;;;;;0.00;0.00;;;;;;;;5080060;28;45522;-82
2021/12/05 04:56:38;;;;;;;;;0.00;0.00;;;;;;;;5061362;28;45859;-81
2021/12/05 04:59:11;;;;;;;;;0.00;0.00;;;;;;;;5079760;28;45876;-82
2021/12/05 05:01:37;;;;;;;;;1.00;0.00;;;;;;;;5061031;28;45485;-81
2021/12/05 05:04:06;;;;;;;;;0.00;0.00;;;;;;;;5060242;28;45692;-82
2021/12/05 05:06:32;;;;;;;;;0.00;0.00;;;;;;;;5060686;28;45485;-82
2021/12/05 05:08:57;;;;;;;;;1.00;0.00;;;;;;;;5061224;28;47522;-81
2021/12/05 05:11:31;;;;;;;;;0.00;0.00;;;;;;;;5060729;28;45423;-82
2021/12/05 05:13:56;;;;;;;;;0.00;0.00;;;;;;;;5081071;28;45957;-81
2021/12/05 05:16:24;;;;;;;;;0.00;0.00;;;;;;;;5062364;28;45759;-81
2021/12/05 05:21:30;;;;;;;;;0.00;0.00;;;;;;;;5080449;28;45818;-81
2021/12/05 05:43:12;;;;;;;;;0.00;0.00;;;;;;;;4996081;28;45455;-81
2021/12/05 05:48:31;;;;;;;;;0.00;0.00;;;;;;;;4995777;28;45522;-82
2021/12/05 05:51:04;;;;;;;;;0.00;0.00;;;;;;;;4994980;28;46046;-82
2021/12/05 05:53:30;;;;;;;;;0.00;0.00;;;;;;;;4996065;28;45812;-82
2021/12/05 05:55:56;;;;;;;;;0.00;0.00;;;;;;;;4996539;28;45410;-82
2021/12/05 05:58:27;;;;;;;;;0.33;0.00;;;;;;;;4995146;28;45649;-81
2021/12/05 06:01:03;;;;;;;;;0.00;0.00;;;;;;;;4995750;28;46573;-82
2021/12/05 06:03:29;;;;;;;;;0.00;0.00;;;;;;;;4995178;28;46161;-81
2021/12/05 06:05:56;;;;;;;;;0.00;0.00;;;;;;;;4996513;28;45512;-81
2021/12/05 06:08:24;;;;;;;;;0.00;0.00;;;;;;;;4998263;28;45479;-81
2021/12/05 06:10:51;;;;;;;;;0.00;0.00;;;;;;;;4996036;28;45961;-81
2021/12/05 06:13:18;;;;;;;;;0.00;0.00;;;;;;;;5002397;28;45541;-80
2021/12/05 06:15:45;;;;;;;;;1.67;0.00;;;;;;;;5077943;28;45538;-81
2021/12/05 06:18:10;;;;;;;;;1.00;0.00;;;;;;;;5077687;28;45464;-81
2021/12/05 06:20:35;;;;;;;;;0.33;0.33;;;;;;;;5077754;28;45456;-82
2021/12/05 06:23:01;;;;;;;;;0.33;0.00;;;;;;;;5058627;28;45845;-82
2021/12/05 06:25:29;;;;;;;;;0.33;0.33;;;;;;;;5077386;28;45513;-82
2021/12/05 06:27:58;;;;;;;;;0.00;0.00;;;;;;;;5053470;28;45560;-82
2021/12/05 06:31:17;;;;;;;;;0.00;0.00;;;;;;;;5059948;28;47260;-82
2021/12/05 06:46:40;;;;;;;;;0.00;0.00;;;;;;;;5082312;28;45870;-82
2021/12/05 06:49:05;;;;;;;;;0.00;0.00;;;;;;;;5083618;28;45498;-82
2021/12/05 06:51:37;;;;;;;;;0.00;0.00;;;;;;;;5056281;28;46997;-82
2021/12/05 06:54:02;;;;;;;;;1.33;1.33;;;;;;;;5044097;28;45507;-82
2021/12/05 06:56:27;;;;;;;;;2.00;1.00;;;;;;;;5044790;28;45581;-81
2021/12/05 06:58:53;;;;;;;;;1.33;0.00;;;;;;;;5043171;28;45496;-81
2021/12/05 07:01:19;;;;;;;;;0.67;0.00;;;;;;;;5042564;28;47123;-82
2021/12/05 07:03:48;;;;;;;;;0.33;0.33;;;;;;;;5042920;28;45446;-81
2021/12/05 07:09:10;;;;;;;;;0.33;0.33;;;;;;;;5037862;28;45593;-82
2021/12/05 07:25:02;;;;;;;;;0.00;0.00;;;;;;;;5063261;28;45863;-81
2021/12/05 07:41:39;;;;;;;;;1.00;0.00;;;;;;;;5058760;28;45745;-80
2021/12/05 07:43:58;;;;;;;;;0.00;0.00;;;;;;;;5060319;28;45571;-81
2021/12/05 07:46:24;;;;;;;;;0.00;0.00;;;;;;;;5042597;28;45470;-81
2021/12/05 07:48:49;;;;;;;;;0.00;0.00;;;;;;;;5060874;28;44949;-81
2021/12/05 07:53:52;;;;;;;;;1.67;1.67;;;;;;;;5080979;28;45397;-81
2021/12/05 07:56:27;;;;;;;;;2.00;2.00;;;;;;;;5064126;28;45398;-83
2021/12/05 07:59:12;;;;;;;;;2.00;2.00;;;;;;;;5061952;28;45443;-82
2021/12/05 08:15:44;;;;;;;;;1.00;0.00;;;;;;;;5017434;28;45858;-81
2021/12/05 08:18:09;;;;;;;;;2.00;2.00;;;;;;;;5000395;28;45945;-81
2021/12/05 08:20:35;;;;;;;;;0.33;0.33;;;;;;;;5017172;28;45399;-82
2021/12/05 08:23:02;;;;;;;;;0.67;0.67;;;;;;;;5019555;28;45395;-82
2021/12/05 08:25:30;;;;;;;;;1.33;1.33;;;;;;;;5002976;28;47216;-82
2021/12/05 08:28:26;;;;;;;;;1.33;1.00;;;;;;;;5019168;28;45519;-82
2021/12/05 08:31:07;;;;;;;;;2.00;2.00;;;;;;;;5002669;28;45484;-81
2021/12/05 08:33:51;;;;;;;;;0.67;0.67;;;;;;;;4998638;28;45507;-81
2021/12/05 08:39:17;;;;;;;;;5.00;1.00;;;;;;;;5029878;28;45515;-82
2021/12/05 09:08:48;;;;;;;;;2.00;2.00;;;;;;;;5019789;28;45342;-82
2021/12/05 10:03:08;;;;;;;;;5.67;2.67;;;;;;;;5017000;28;45996;-82
2021/12/05 10:11:08;;;;;;;;;2.00;1.67;;;;;;;;5017934;28;45624;-82
2021/12/05 10:14:01;;;;;;;;;1.00;1.00;;;;;;;;5019803;28;45802;-82
2021/12/05 10:36:11;;;;;;;;;2.33;2.33;;;;;;;;5065530;28;45492;-82
2021/12/05 10:38:17;;;;;;;;;2.00;2.00;;;;;;;;5055653;28;45459;-82
2021/12/05 10:40:52;;;;;;;;;5.00;5.00;;;;;;;;5045889;28;45707;-81
2021/12/05 10:43:19;;;;;;;;;2.00;2.00;;;;;;;;5068976;28;45406;-82
2021/12/05 10:45:46;;;;;;;;;2.00;2.00;;;;;;;;5085247;28;45485;-82
2021/12/05 10:48:22;;;;;;;;;1.00;1.00;;;;;;;;5067037;28;45504;-81
2021/12/05 10:50:50;;;;;;;;;2.67;2.33;;;;;;;;5085754;28;45832;-81
2021/12/05 10:53:24;;;;;;;;;3.67;3.67;;;;;;;;5085010;28;45715;-81
2021/12/05 10:55:59;;;;;;;;;6.00;5.67;;;;;;;;5065340;28;46247;-80
2021/12/05 10:58:30;;;;;;;;;3.67;3.67;;;;;;;;5083994;28;45448;-81
2021/12/05 11:01:03;;;;;;;;;5.00;3.67;;;;;;;;5084229;28;45451;-81
2021/12/05 11:03:29;;;;;;;;;2.00;2.00;;;;;;;;5066909;28;45736;-81
2021/12/05 11:05:55;;;;;;;;;2.00;2.00;;;;;;;;5066598;28;48125;-80
2021/12/05 11:08:30;;;;;;;;;3.00;1.00;;;;;;;;5066192;28;47276;-81
2021/12/05 11:11:09;;;;;;;;;2.67;2.00;;;;;;;;5065129;28;45349;-80
2021/12/05 11:13:37;;;;;;;;;3.67;3.00;;;;;;;;5066836;28;45821;-81
2021/12/05 11:16:02;;;;;;;;;2.00;1.67;;;;;;;;5066017;28;47648;-82
2021/12/05 11:18:44;;;;;;;;;2.67;2.67;;;;;;;;5084347;28;45667;-81
2021/12/05 11:21:32;;;;;;;;;2.67;2.67;;;;;;;;5087864;28;45763;-81
2021/12/05 11:24:04;;;;;;;;;2.00;2.00;;;;;;;;5084145;28;45496;-81
2021/12/05 11:26:30;;;;;;;;;3.67;1.00;;;;;;;;5082698;27;46156;-81
2021/12/05 11:28:57;;;;;;;;;2.33;2.33;;;;;;;;5083933;28;45476;-81
2021/12/05 11:31:26;;;;;;;;;1.67;1.67;;;;;;;;5083955;28;45849;-82
2021/12/05 11:33:54;;;;;;;;;3.00;2.00;;;;;;;;5085697;28;45415;-83
2021/12/05 11:36:24;;;;;;;;;2.33;2.33;;;;;;;;5083279;28;45460;-82
2021/12/05 11:38:49;;;;;;;;;2.33;2.33;;;;;;;;5065295;28;45358;-81
2021/12/05 11:41:20;;;;;;;;;2.67;2.67;;;;;;;;5082967;28;45444;-82
2021/12/05 11:43:54;;;;;;;;;2.00;2.00;;;;;;;;5065151;28;45816;-82
2021/12/05 11:46:36;;;;;;;;;1.00;1.00;;;;;;;;5083323;28;45385;-82
2021/12/05 11:49:05;;;;;;;;;2.00;2.00;;;;;;;;5064416;28;45477;-83
2021/12/05 11:51:37;;;;;;;;;1.00;1.00;;;;;;;;5064701;28;45750;-82
2021/12/05 11:54:08;;;;;;;;;1.00;1.00;;;;;;;;5064558;28;45433;-82
2021/12/05 11:56:39;;;;;;;;;1.00;1.00;;;;;;;;5064769;28;47010;-82
2021/12/05 11:59:14;;;;;;;;;1.00;1.00;;;;;;;;5066384;28;45462;-82
2021/12/05 12:01:43;;;;;;;;;0.00;0.00;;;;;;;;5068456;28;45505;-80
2021/12/05 12:04:10;;;;;;;;;1.00;1.00;;;;;;;;5087006;28;45239;-80
2021/12/05 12:06:36;;;;;;;;;1.00;1.00;;;;;;;;5085963;28;45782;-82
2021/12/05 12:09:02;;;;;;;;;0.33;0.33;;;;;;;;5091549;28;45386;-83
2021/12/05 12:11:28;;;;;;;;;1.00;1.00;;;;;;;;5069848;28;45464;-83
2021/12/05 12:13:54;;;;;;;;;0.00;0.00;;;;;;;;5080871;28;45314;-83
2021/12/05 12:16:20;;;;;;;;;0.00;0.00;;;;;;;;5072989;28;47254;-82
2021/12/05 12:18:48;;;;;;;;;0.00;0.00;;;;;;;;5084689;28;45382;-82
2021/12/05 12:21:17;;;;;;;;;0.33;0.33;;;;;;;;5065224;28;45361;-82
2021/12/05 12:23:43;;;;;;;;;0.00;0.00;;;;;;;;5064409;28;45420;-82
2021/12/05 12:26:10;;;;;;;;;1.67;1.67;;;;;;;;5065801;28;47099;-82
2021/12/05 12:28:35;;;;;;;;;1.00;1.00;;;;;;;;5082362;28;45453;-82
2021/12/05 12:31:03;;;;;;;;;0.33;0.33;;;;;;;;5080418;28;45717;-82
2021/12/05 12:33:31;;;;;;;;;0.00;0.00;;;;;;;;5043902;28;44778;-82
2021/12/05 12:35:57;;;;;;;;;1.00;1.00;;;;;;;;5062369;28;45855;-82
2021/12/05 12:38:23;;;;;;;;;1.33;0.67;;;;;;;;5043529;28;45535;-82
2021/12/05 12:40:49;;;;;;;;;0.00;0.00;;;;;;;;5058572;28;45568;-82
2021/12/05 12:43:27;;;;;;;;;1.00;1.00;;;;;;;;5065173;28;45366;-83
2021/12/05 12:45:53;;;;;;;;;2.00;0.67;;;;;;;;5066683;28;47503;-82
2021/12/05 12:48:26;;;;;;;;;1.00;1.00;;;;;;;;5083465;28;44767;-82
2021/12/05 12:50:52;;;;;;;;;1.00;1.00;;;;;;;;5084794;28;45156;-82
2021/12/05 12:53:17;;;;;;;;;2.00;2.00;;;;;;;;5048118;28;45343;-81
2021/12/05 12:55:58;;;;;;;;;1.67;1.67;;;;;;;;5067330;28;45371;-81
2021/12/05 12:58:37;;;;;;;;;1.00;1.00;;;;;;;;5066716;28;45476;-82
2021/12/05 13:01:16;;;;;;;;;2.00;2.00;;;;;;;;5065641;28;45498;-82
2021/12/05 13:04:28;;;;;;;;;6.00;3.00;;;;;;;;5047210;28;45733;-81
2021/12/05 13:12:48;;;;;;;;;6.00;6.00;;;;;;;;5063796;28;45421;-81
2021/12/05 13:15:16;;;;;;;;;7.67;6.00;;;;;;;;5045124;28;45426;-82
2021/12/05 13:17:43;;;;;;;;;9.00;9.00;;;;;;;;5044151;28;46053;-81
2021/12/05 13:20:12;;;;;;;;;16.33;12.33;;;;;;;;5042133;28;45424;-82
2021/12/05 13:22:57;;;;;;;;;6.00;6.00;;;;;;;;5061730;28;45469;-81
2021/12/05 13:25:22;;;;;;;;;12.33;12.33;;;;;;;;5044674;28;44915;-81
2021/12/05 13:27:47;;;;;;;;;6.33;5.00;;;;;;;;5046286;28;47756;-82
2021/12/05 13:30:26;;;;;;;;;9.33;9.33;;;;;;;;5061302;28;45496;-81
2021/12/05 13:33:12;;;;;;;;;12.67;9.33;;;;;;;;5062481;28;45365;-81
2021/12/05 13:35:40;;;;;;;;;12.67;12.67;;;;;;;;5043466;28;45854;-83
2021/12/05 13:38:06;;;;;;;;;7.67;7.67;;;;;;;;5044583;28;46874;-82
2021/12/05 13:40:32;;;;;;;;;6.00;6.00;;;;;;;;5061513;28;45591;-82
2021/12/05 13:43:06;;;;;;;;;9.67;5.67;;;;;;;;5062926;28;44827;-82
2021/12/05 13:45:33;;;;;;;;;2.67;2.67;;;;;;;;5046460;28;45461;-81
2021/12/05 13:48:00;;;;;;;;;2.67;2.00;;;;;;;;5043934;28;47048;-81
2021/12/05 13:50:28;;;;;;;;;2.33;1.00;;;;;;;;5045044;28;45729;-81
2021/12/05 13:53:02;;;;;;;;;5.33;3.00;;;;;;;;5061276;28;45523;-82
2021/12/05 13:55:30;;;;;;;;;3.67;3.67;;;;;;;;5068436;28;45527;-81
2021/12/05 13:58:14;;;;;;;;;5.67;3.00;;;;;;;;5085941;28;45445;-82
2021/12/05 14:00:45;;;;;;;;;2.00;2.00;;;;;;;;5066507;28;45394;-81
2021/12/05 14:03:12;;;;;;;;;2.00;2.00;;;;;;;;5067609;28;45469;-82
2021/12/05 14:05:45;;;;;;;;;3.00;3.00;;;;;;;;5067004;28;45730;-82
2021/12/05 14:08:10;;;;;;;;;2.00;2.00;;;;;;;;5084571;28;46072;-82
2021/12/05 14:10:42;;;;;;;;;2.00;2.00;;;;;;;;5066613;28;45328;-82
2021/12/05 14:13:07;;;;;;;;;3.00;2.00;;;;;;;;5084104;28;45508;-81
2021/12/05 14:15:34;;;;;;;;;3.00;3.00;;;;;;;;5065556;28;45596;-82
2021/12/05 14:17:59;;;;;;;;;4.33;3.00;;;;;;;;5084398;28;45791;-81
2021/12/05 14:20:25;;;;;;;;;1.00;1.00;;;;;;;;5064614;28;45755;-83
2021/12/05 14:22:51;;;;;;;;;3.00;3.00;;;;;;;;5070670;28;45422;-83
2021/12/05 14:25:21;;;;;;;;;2.00;2.00;;;;;;;;5063270;28;45399;-81
2021/12/05 14:27:49;;;;;;;;;2.00;2.00;;;;;;;;5061333;28;46731;-82
2021/12/05 14:30:18;;;;;;;;;4.33;2.67;;;;;;;;5064093;28;45491;-82
2021/12/05 14:32:44;;;;;;;;;3.00;1.00;;;;;;;;5062363;28;45453;-82
2021/12/05 14:35:17;;;;;;;;;3.00;2.00;;;;;;;;5081324;28;45419;-82
2021/12/05 14:37:45;;;;;;;;;3.00;3.00;;;;;;;;5079985;28;45462;-82
2021/12/05 14:40:15;;;;;;;;;3.00;2.00;;;;;;;;5061968;28;45443;-81
2021/12/05 14:42:42;;;;;;;;;2.00;2.00;;;;;;;;5062817;28;45482;-82
2021/12/05 14:45:15;;;;;;;;;4.00;2.00;;;;;;;;5062904;28;45417;-81
2021/12/05 14:47:42;;;;;;;;;2.33;2.33;;;;;;;;5061702;28;48104;-82
2021/12/05 14:50:10;;;;;;;;;3.00;3.00;;;;;;;;5082210;28;45376;-81
2021/12/05 14:52:36;;;;;;;;;6.33;3.67;;;;;;;;5062272;28;45933;-82
2021/12/05 14:55:03;;;;;;;;;6.00;6.00;;;;;;;;5081102;28;45453;-82
2021/12/05 14:57:29;;;;;;;;;6.00;6.00;;;;;;;;5079591;28;46713;-82
2021/12/05 14:59:59;;;;;;;;;5.67;5.67;;;;;;;;5061706;28;46177;-82
2021/12/05 15:02:25;;;;;;;;;1.00;0.33;;;;;;;;5066346;28;45438;-82
2021/12/05 15:04:52;;;;;;;;;6.67;6.67;;;;;;;;5065345;28;45508;-82
2021/12/05 15:07:19;;;;;;;;;6.00;5.00;;;;;;;;5083137;28;45423;-82
2021/12/05 15:09:46;;;;;;;;;5.00;5.00;;;;;;;;5066317;28;45461;-82
2021/12/05 15:12:18;;;;;;;;;2.33;2.33;;;;;;;;5083341;28;45334;-82
2021/12/05 15:14:46;;;;;;;;;0.00;0.00;;;;;;;;5064191;28;45616;-82
2021/12/05 15:17:16;;;;;;;;;2.00;2.00;;;;;;;;5082934;28;45417;-82
2021/12/05 15:19:43;;;;;;;;;2.67;1.33;;;;;;;;5067430;28;45491;-82
2021/12/05 15:22:09;;;;;;;;;3.00;2.00;;;;;;;;5083171;28;45533;-82
2021/12/05 15:24:34;;;;;;;;;2.00;2.00;;;;;;;;5064277;28;45467;-82
2021/12/05 15:27:03;;;;;;;;;3.00;3.00;;;;;;;;5064976;28;48074;-82
2021/12/05 15:29:29;;;;;;;;;1.00;1.00;;;;;;;;5083468;28;45501;-82
2021/12/05 15:31:55;;;;;;;;;3.00;2.00;;;;;;;;5083531;28;45664;-82
2021/12/05 15:34:26;;;;;;;;;2.00;2.00;;;;;;;;5068511;28;45385;-81
2021/12/05 15:36:51;;;;;;;;;1.67;1.67;;;;;;;;5066559;28;47176;-82
2021/12/05 15:39:20;;;;;;;;;3.00;3.00;;;;;;;;5067041;28;45944;-82
2021/12/05 15:41:47;;;;;;;;;2.33;2.33;;;;;;;;5067476;28;45506;-82
2021/12/05 15:44:23;;;;;;;;;4.33;4.33;;;;;;;;5069336;28;45500;-82
2021/12/05 15:46:48;;;;;;;;;6.67;4.33;;;;;;;;5066979;28;47285;-82
2021/12/05 15:49:13;;;;;;;;;2.33;2.33;;;;;;;;5086984;28;45507;-82
2021/12/05 15:51:38;;;;;;;;;4.33;3.67;;;;;;;;5086104;28;45524;-82
2021/12/05 15:54:05;;;;;;;;;1.33;1.33;;;;;;;;5066137;28;45543;-81
2021/12/05 15:56:31;;;;;;;;;5.00;4.67;;;;;;;;5085198;28;45282;-82
2021/12/05 15:59:02;;;;;;;;;1.67;1.67;;;;;;;;5084837;28;44891;-82
2021/12/05 16:01:29;;;;;;;;;2.67;2.67;;;;;;;;5084522;28;45494;-81
2021/12/05 16:03:56;;;;;;;;;4.33;4.33;;;;;;;;5084763;28;45467;-82
2021/12/05 16:06:29;;;;;;;;;3.00;2.00;;;;;;;;5064993;28;47358;-82
2021/12/05 16:08:54;;;;;;;;;3.00;3.00;;;;;;;;5064644;28;45439;-82
2021/12/05 16:11:21;;;;;;;;;3.00;3.00;;;;;;;;5064770;28;45698;-82
2021/12/05 16:13:49;;;;;;;;;6.00;5.00;;;;;;;;5057530;28;45518;-81
2021/12/05 16:16:48;;;;;;;;;3.00;3.00;;;;;;;;5063762;28;47021;-81
2021/12/05 16:19:13;;;;;;;;;3.00;3.00;;;;;;;;5064466;28;45833;-81
2021/12/05 16:21:39;;;;;;;;;3.00;3.00;;;;;;;;5066076;28;45404;-82
2021/12/05 16:24:04;;;;;;;;;5.33;5.00;;;;;;;;5045150;28;45863;-81
2021/12/05 16:26:29;;;;;;;;;2.67;2.67;;;;;;;;5048310;28;47832;-81
2021/12/05 16:29:00;;;;;;;;;3.00;3.00;;;;;;;;5066343;28;45940;-82
2021/12/05 16:31:25;;;;;;;;;3.00;3.00;;;;;;;;5047264;28;45382;-82
2021/12/05 16:33:55;;;;;;;;;4.33;4.33;;;;;;;;5048119;28;45488;-82
2021/12/05 16:36:27;;;;;;;;;2.33;2.33;;;;;;;;5064656;28;46289;-82
2021/12/05 16:38:52;;;;;;;;;3.00;3.00;;;;;;;;5067309;28;45543;-82
2021/12/05 16:41:20;;;;;;;;;5.33;5.33;;;;;;;;5084862;28;45783;-81
2021/12/05 16:44:04;;;;;;;;;5.67;5.67;;;;;;;;5065235;28;45888;-82
2021/12/05 16:46:33;;;;;;;;;4.33;4.33;;;;;;;;5063988;28;47167;-83
2021/12/05 16:48:59;;;;;;;;;7.00;5.00;;;;;;;;5082442;28;45445;-81
2021/12/05 16:51:30;;;;;;;;;6.00;6.00;;;;;;;;5063966;28;45495;-82
2021/12/05 16:54:01;;;;;;;;;2.00;2.00;;;;;;;;5083158;28;45382;-82
2021/12/05 16:56:38;;;;;;;;;7.00;7.00;;;;;;;;5082470;28;45175;-81
2021/12/05 16:59:22;;;;;;;;;3.00;2.00;;;;;;;;5063620;28;45457;-81
2021/12/05 17:02:06;;;;;;;;;7.67;6.00;;;;;;;;5064838;28;45858;-80
2021/12/05 17:04:39;;;;;;;;;6.00;6.00;;;;;;;;5082815;28;45457;-81
2021/12/05 17:07:08;;;;;;;;;7.00;7.00;;;;;;;;5081605;28;46213;-81
2021/12/05 17:09:37;;;;;;;;;6.00;6.00;;;;;;;;5081121;28;45815;-81
2021/12/05 17:12:03;;;;;;;;;8.67;8.67;;;;;;;;5081350;28;45391;-81
2021/12/05 17:14:28;;;;;;;;;9.67;9.67;;;;;;;;5083395;28;45400;-81
2021/12/05 17:16:55;;;;;;;;;6.33;6.33;;;;;;;;5082000;28;45738;-81
2021/12/05 17:22:25;;;;;;;;;9.00;5.33;;;;;;;;5081556;28;45398;-81
2021/12/05 17:24:51;;;;;;;;;7.00;7.00;;;;;;;;5061698;28;45520;-81
2021/12/05 17:27:17;;;;;;;;;6.00;6.00;;;;;;;;5062493;28;46999;-81
2021/12/05 17:29:43;;;;;;;;;8.67;8.33;;;;;;;;5063217;28;45543;-82
2021/12/05 17:32:16;;;;;;;;;6.00;6.00;;;;;;;;5064288;28;45425;-81
2021/12/05 17:34:44;;;;;;;;;9.00;9.00;;;;;;;;5064866;28;45452;-81
2021/12/05 17:37:11;;;;;;;;;7.67;7.67;;;;;;;;5081160;28;45452;-81
2021/12/05 17:39:44;;;;;;;;;9.00;9.00;;;;;;;;5082582;28;45444;-81
2021/12/05 17:42:13;;;;;;;;;13.33;13.33;;;;;;;;5063305;28;45429;-81
2021/12/05 17:44:39;;;;;;;;;14.67;13.33;;;;;;;;5081039;28;45346;-80
2021/12/05 17:47:07;;;;;;;;;12.67;12.67;;;;;;;;5062731;28;48150;-82
2021/12/05 17:49:34;;;;;;;;;15.67;14.67;;;;;;;;5080171;28;45735;-83
2021/12/05 17:52:06;;;;;;;;;14.00;14.00;;;;;;;;5061521;28;45397;-80
2021/12/05 17:54:37;;;;;;;;;15.00;11.33;;;;;;;;5061662;28;45528;-79
2021/12/05 17:57:08;;;;;;;;;12.33;11.00;;;;;;;;5061590;28;47841;-82
2021/12/05 18:04:49;;;;;;;;;12.00;8.67;;;;;;;;5081337;28;45673;-82
2021/12/05 18:07:15;;;;;;;;;11.00;10.00;;;;;;;;5079863;28;46599;-81
2021/12/05 18:09:41;;;;;;;;;18.00;15.67;;;;;;;;5082645;28;45357;-81
2021/12/05 18:12:12;;;;;;;;;18.00;16.00;;;;;;;;5081419;28;45354;-81
2021/12/05 18:14:37;;;;;;;;;12.67;12.00;;;;;;;;5042767;28;45629;-82
2021/12/05 18:17:03;;;;;;;;;18.00;14.33;;;;;;;;5041950;28;47294;-82
2021/12/05 18:19:28;;;;;;;;;14.00;11.33;;;;;;;;5042886;28;45435;-81
2021/12/05 18:21:55;;;;;;;;;20.33;16.00;;;;;;;;5042855;28;45660;-81
2021/12/05 18:24:20;;;;;;;;;15.67;14.00;;;;;;;;5042490;28;45445;-81
2021/12/05 18:26:47;;;;;;;;;17.00;14.00;;;;;;;;5060268;28;45509;-80
2021/12/05 18:29:15;;;;;;;;;19.00;16.33;;;;;;;;5060385;28;45486;-81
2021/12/05 18:31:40;;;;;;;;;17.67;15.67;;;;;;;;5044279;28;45538;-81
2021/12/05 18:37:10;;;;;;;;;25.00;22.00;;;;;;;;5067810;28;45481;-82
2021/12/05 18:39:41;;;;;;;;;18.00;18.00;;;;;;;;5049397;28;45481;-82
2021/12/05 18:42:08;;;;;;;;;21.00;18.67;;;;;;;;5066747;28;45504;-82
2021/12/05 18:44:37;;;;;;;;;22.67;16.00;;;;;;;;5082960;28;45614;-81
2021/12/05 18:47:05;;;;;;;;;18.67;18.67;;;;;;;;5057187;28;48291;-82
2021/12/05 18:49:37;;;;;;;;;18.33;18.33;;;;;;;;5047996;28;45686;-82
2021/12/05 18:52:03;;;;;;;;;17.33;14.67;;;;;;;;5066065;28;45449;-82
2021/12/05 18:54:29;;;;;;;;;14.33;14.33;;;;;;;;5065682;28;44951;-82
2021/12/05 18:56:55;;;;;;;;;16.00;15.00;;;;;;;;5049320;28;47367;-82
2021/12/05 18:59:22;;;;;;;;;13.33;11.33;;;;;;;;5048131;28;45667;-81
2021/12/05 19:07:04;;;;;;;;;12.00;12.00;;;;;;;;5064080;28;45676;-82
2021/12/05 19:12:15;;;;;;;;;19.33;15.33;;;;;;;;5064616;28;45454;-82
2021/12/05 19:14:42;;;;;;;;;13.33;11.00;;;;;;;;5047321;28;45702;-82
2021/12/05 19:17:15;;;;;;;;;17.33;14.33;;;;;;;;5062335;28;47437;-82
2021/12/05 19:19:42;;;;;;;;;18.33;11.33;;;;;;;;5046916;28;45402;-82
2021/12/05 19:22:10;;;;;;;;;16.33;15.33;;;;;;;;5062042;28;45527;-82
2021/12/05 19:24:35;;;;;;;;;7.67;7.67;;;;;;;;5044248;28;45566;-82
2021/12/05 19:27:01;;;;;;;;;10.00;8.67;;;;;;;;5062782;28;45192;-82
2021/12/05 19:29:27;;;;;;;;;14.00;12.00;;;;;;;;5043444;28;45505;-82
2021/12/05 19:31:54;;;;;;;;;11.00;11.00;;;;;;;;5044138;28;45458;-82
2021/12/05 19:34:20;;;;;;;;;11.00;10.67;;;;;;;;5063884;28;45453;-81
2021/12/05 19:36:46;;;;;;;;;12.00;10.00;;;;;;;;5062656;28;45768;-82
2021/12/05 19:39:12;;;;;;;;;10.00;10.00;;;;;;;;5044632;28;45939;-82
2021/12/05 19:41:37;;;;;;;;;10.33;10.00;;;;;;;;5044863;28;45498;-80
2021/12/05 19:44:03;;;;;;;;;13.00;13.00;;;;;;;;5063813;28;45855;-81
2021/12/05 19:46:30;;;;;;;;;8.33;8.33;;;;;;;;5061545;28;46343;-81
2021/12/05 19:48:56;;;;;;;;;11.33;11.00;;;;;;;;5041444;28;45782;-81
2021/12/05 19:51:22;;;;;;;;;8.67;6.00;;;;;;;;5041613;28;45901;-81
2021/12/05 19:53:48;;;;;;;;;12.33;12.33;;;;;;;;5061192;28;45500;-82
2021/12/05 19:56:14;;;;;;;;;14.33;11.00;;;;;;;;5061786;28;45373;-81
2021/12/05 19:58:40;;;;;;;;;11.67;10.67;;;;;;;;5063236;28;45815;-81
2021/12/05 20:01:06;;;;;;;;;9.67;9.33;;;;;;;;5043536;28;45947;-81
2021/12/05 20:03:32;;;;;;;;;7.00;7.00;;;;;;;;5064668;28;45414;-82
2021/12/05 20:05:57;;;;;;;;;7.00;7.00;;;;;;;;5064295;28;45698;-82
2021/12/05 20:08:23;;;;;;;;;10.67;8.33;;;;;;;;5045417;28;45474;-83
2021/12/05 20:10:50;;;;;;;;;10.67;9.67;;;;;;;;5045498;28;44957;-82
2021/12/05 20:13:15;;;;;;;;;11.00;11.00;;;;;;;;5063827;28;45404;-81
2021/12/05 20:15:41;;;;;;;;;12.00;12.00;;;;;;;;5045849;28;48333;-81
2021/12/05 20:18:08;;;;;;;;;10.00;10.00;;;;;;;;5062458;28;45503;-81
2021/12/05 20:20:34;;;;;;;;;10.33;10.00;;;;;;;;5042692;28;45406;-80
2021/12/05 20:22:59;;;;;;;;;8.33;8.33;;;;;;;;5061072;28;45599;-80
2021/12/05 20:25:26;;;;;;;;;10.00;8.33;;;;;;;;5042946;28;47112;-81
2021/12/05 20:27:51;;;;;;;;;10.00;10.00;;;;;;;;5040487;28;45438;-80
2021/12/05 20:30:17;;;;;;;;;10.00;7.00;;;;;;;;5055953;28;45524;-80